Аэропорт: Витязево. Анапа

ICAO: URKA

METAR:
2022-01-28 07:30:00
URKA 280730Z 15005MPS 9999 SCT047 M02/M05 Q1019 R22/150065 NOSIG RMK QFE760/1013
METAR:
2022-01-28 04:59:00
TAF URKA 280459Z 2806/2906 20007G14MPS 9999 BKN016CB TEMPO 2806/2810 17003G08MPS -SHSN PROB40 2806/2810 -FZRA TEMPO 2810/2906 22010G19MPS 2000 SHRA SCT005 BKN020CB